createdAt,value
2019-05-28T00:02:04.552Z,16.30
2019-05-28T00:04:42.462Z,16.20
2019-05-28T00:07:21.625Z,16.20
2019-05-28T00:09:58.752Z,16.20
2019-05-28T00:12:35.855Z,16.20
2019-05-28T00:15:16.109Z,16.20
2019-05-28T00:17:54.055Z,16.20
2019-05-28T00:20:31.150Z,16.10
2019-05-28T00:23:08.293Z,16.10
2019-05-28T00:25:45.592Z,16.10
2019-05-28T00:28:22.704Z,16.10
2019-05-28T00:31:01.461Z,16.10
2019-05-28T00:33:38.552Z,16.10
2019-05-28T00:36:15.645Z,16.10
2019-05-28T00:38:54.434Z,16.10
2019-05-28T00:41:31.552Z,16.10
2019-05-28T00:44:08.657Z,16.10
2019-05-28T00:46:45.784Z,16.10
2019-05-28T00:49:22.911Z,16.10
2019-05-28T00:52:00.035Z,16.10
2019-05-28T00:54:37.339Z,16.00
2019-05-28T00:57:14.975Z,16.00
2019-05-28T00:59:52.111Z,16.00
2019-05-28T01:02:29.234Z,16.00
2019-05-28T01:05:06.861Z,16.00
2019-05-28T01:07:43.951Z,16.00
2019-05-28T01:10:21.074Z,15.90
2019-05-28T01:12:58.175Z,15.90
2019-05-28T01:15:35.295Z,15.90
2019-05-28T01:18:12.425Z,15.90
2019-05-28T01:20:49.549Z,15.90
2019-05-28T01:23:26.642Z,15.90
2019-05-28T01:26:03.775Z,15.90
2019-05-28T01:28:40.903Z,15.90
2019-05-28T01:31:18.017Z,15.80
2019-05-28T01:33:56.759Z,15.90
2019-05-28T01:36:33.918Z,15.80
2019-05-28T01:39:11.407Z,15.80
2019-05-28T01:41:48.598Z,15.80
2019-05-28T01:44:25.727Z,15.80
2019-05-28T01:47:02.813Z,15.80
2019-05-28T01:49:39.909Z,15.80
2019-05-28T01:52:17.003Z,15.70
2019-05-28T01:54:54.090Z,15.70
2019-05-28T01:57:31.210Z,15.70
2019-05-28T02:00:21.005Z,15.70
2019-05-28T02:02:59.121Z,15.70
2019-05-28T02:05:36.682Z,15.70
2019-05-28T02:08:14.970Z,15.70
2019-05-28T02:10:53.184Z,15.70
2019-05-28T02:13:32.060Z,15.70
2019-05-28T02:16:09.672Z,15.70
2019-05-28T02:18:47.236Z,15.70
2019-05-28T02:21:24.744Z,15.70
2019-05-28T02:24:02.847Z,15.70
2019-05-28T02:26:40.099Z,15.70
2019-05-28T02:29:20.748Z,15.70
2019-05-28T02:31:58.721Z,15.70
2019-05-28T02:34:36.473Z,15.60
2019-05-28T02:37:14.010Z,15.60
2019-05-28T02:39:52.937Z,15.60
2019-05-28T02:42:31.424Z,15.60
2019-05-28T02:45:12.855Z,15.60
2019-05-28T02:47:51.589Z,15.60
2019-05-28T02:50:41.976Z,15.60
2019-05-28T02:53:19.545Z,15.60
2019-05-28T02:55:57.871Z,15.60
2019-05-28T02:58:36.099Z,15.60
2019-05-28T03:01:14.413Z,15.60
2019-05-28T03:03:52.322Z,15.60
2019-05-28T03:06:29.820Z,15.60
2019-05-28T03:09:07.605Z,15.50
2019-05-28T03:11:45.091Z,15.50
2019-05-28T03:14:22.812Z,15.60
2019-05-28T03:17:02.927Z,15.60
2019-05-28T03:19:41.762Z,15.60
2019-05-28T03:22:19.757Z,15.60
2019-05-28T03:24:57.521Z,15.60
2019-05-28T03:27:34.964Z,15.60
2019-05-28T03:30:12.619Z,15.60
2019-05-28T03:32:49.790Z,15.60
2019-05-28T03:35:27.963Z,15.60
2019-05-28T03:38:06.103Z,15.60
2019-05-28T03:40:45.430Z,15.60
2019-05-28T03:43:24.487Z,15.60
2019-05-28T03:46:02.296Z,15.60
2019-05-28T03:48:40.601Z,15.60
2019-05-28T03:51:19.086Z,15.60
2019-05-28T03:54:12.146Z,15.70
2019-05-28T03:56:50.265Z,15.70
2019-05-28T03:59:28.553Z,15.70
2019-05-28T04:02:22.565Z,15.80
2019-05-28T04:04:47.580Z,15.70
2019-05-28T04:07:25.026Z,15.80
2019-05-28T04:10:03.164Z,15.80
2019-05-28T04:12:42.240Z,15.80
2019-05-28T04:15:25.921Z,15.80
2019-05-28T04:18:05.062Z,15.80
2019-05-28T04:20:43.208Z,15.70
2019-05-28T04:23:22.882Z,15.80
2019-05-28T04:26:00.701Z,15.80
2019-05-28T04:28:40.505Z,15.80
2019-05-28T04:31:19.084Z,15.70
2019-05-28T04:33:58.434Z,15.70
2019-05-28T04:36:36.603Z,15.70
2019-05-28T04:39:15.328Z,15.70
2019-05-28T04:41:53.963Z,15.70
2019-05-28T04:44:32.212Z,15.70
2019-05-28T04:47:11.257Z,15.70
2019-05-28T04:49:49.928Z,15.70
2019-05-28T04:52:30.562Z,15.70
2019-05-28T04:55:07.527Z,15.70
2019-05-28T04:57:44.834Z,15.70
2019-05-28T05:00:23.049Z,15.80
2019-05-28T05:03:02.053Z,15.80
2019-05-28T05:05:40.613Z,15.80
2019-05-28T05:08:21.222Z,15.80
2019-05-28T05:10:59.346Z,15.90
2019-05-28T05:13:38.125Z,16.00
2019-05-28T05:16:16.494Z,16.10
2019-05-28T05:18:55.924Z,16.20
2019-05-28T05:21:35.777Z,16.30
2019-05-28T05:24:18.154Z,16.40
2019-05-28T05:26:56.082Z,16.40
2019-05-28T05:29:35.368Z,16.50
2019-05-28T05:32:14.619Z,16.60
2019-05-28T05:34:53.738Z,16.70
2019-05-28T05:37:33.942Z,16.80
2019-05-28T05:40:13.012Z,16.90
2019-05-28T05:43:07.031Z,17.00
2019-05-28T05:45:45.599Z,17.20
2019-05-28T05:48:23.369Z,17.30
2019-05-28T05:51:01.865Z,17.50
2019-05-28T05:53:39.918Z,17.70
2019-05-28T05:56:17.960Z,17.90
2019-05-28T05:58:58.095Z,18.10
2019-05-28T06:01:35.539Z,18.20
2019-05-28T06:04:15.329Z,18.40
2019-05-28T06:06:53.087Z,18.50
2019-05-28T06:09:33.631Z,18.60
2019-05-28T06:12:12.656Z,18.70
2019-05-28T06:14:50.274Z,18.70
2019-05-28T06:17:28.986Z,18.70
2019-05-28T06:20:09.433Z,18.70
2019-05-28T06:22:48.085Z,18.60
2019-05-28T06:25:26.080Z,18.60
2019-05-28T06:28:04.322Z,18.50
2019-05-28T06:30:42.704Z,18.50
2019-05-28T06:33:22.227Z,18.40
2019-05-28T06:39:20.129Z,18.40
2019-05-28T06:41:58.897Z,18.40
2019-05-28T06:44:36.848Z,18.50
2019-05-28T06:47:16.731Z,18.60
2019-05-28T06:49:55.483Z,18.60
2019-05-28T06:52:35.459Z,18.60
2019-05-28T06:55:13.574Z,18.60
2019-05-28T06:57:53.642Z,18.60
2019-05-28T07:00:32.031Z,18.60
2019-05-28T07:03:11.157Z,18.50
2019-05-28T07:06:05.594Z,18.50
2019-05-28T07:08:33.621Z,18.60
2019-05-28T07:11:14.724Z,18.60
2019-05-28T07:13:55.958Z,18.70
2019-05-28T07:16:52.182Z,18.90
2019-05-28T07:19:24.538Z,19.10
2019-05-28T07:21:59.672Z,19.30
2019-05-28T07:24:38.980Z,19.70
2019-05-28T07:27:17.848Z,20.20
2019-05-28T07:29:56.922Z,20.80
2019-05-28T07:32:37.482Z,21.20
2019-05-28T07:35:14.714Z,21.40
2019-05-28T07:37:52.354Z,21.40
2019-05-28T07:40:34.308Z,21.30
2019-05-28T07:43:14.817Z,21.20
2019-05-28T07:45:53.350Z,21.10
2019-05-28T07:48:31.641Z,20.80
2019-05-28T07:51:09.304Z,20.60
2019-05-28T07:53:46.977Z,20.40
2019-05-28T07:56:24.651Z,20.30
2019-05-28T07:59:02.314Z,20.20
2019-05-28T08:01:39.435Z,20.10
2019-05-28T08:04:17.091Z,20.00
2019-05-28T08:06:55.477Z,19.90
2019-05-28T08:09:32.708Z,19.90
2019-05-28T08:12:11.791Z,19.90
2019-05-28T08:14:49.428Z,19.90
2019-05-28T08:17:26.511Z,19.90
2019-05-28T08:20:03.777Z,19.90
2019-05-28T08:22:43.028Z,20.00
2019-05-28T08:25:33.896Z,20.10
2019-05-28T08:28:18.456Z,20.30
2019-05-28T08:30:39.792Z,20.40
2019-05-28T08:33:17.524Z,20.70
2019-05-28T08:35:55.166Z,21.00
2019-05-28T08:38:32.845Z,21.30
2019-05-28T08:41:10.436Z,21.50
2019-05-28T08:43:48.080Z,21.60
2019-05-28T08:46:27.818Z,21.80
2019-05-28T08:49:05.495Z,22.20
2019-05-28T08:51:43.159Z,22.40
2019-05-28T08:54:20.832Z,22.50
2019-05-28T08:56:58.524Z,22.40
2019-05-28T08:59:36.175Z,22.40
2019-05-28T09:02:27.153Z,22.70
2019-05-28T09:04:53.944Z,23.30
2019-05-28T09:07:31.526Z,24.00
2019-05-28T09:10:09.232Z,24.40
2019-05-28T09:12:46.894Z,24.40
2019-05-28T09:15:24.561Z,24.40
2019-05-28T09:18:02.308Z,24.40
2019-05-28T09:20:39.998Z,24.20
2019-05-28T09:23:17.791Z,24.00
2019-05-28T09:25:55.493Z,23.70
2019-05-28T09:28:33.158Z,23.50
2019-05-28T09:31:10.778Z,23.40
2019-05-28T09:33:48.428Z,23.20
2019-05-28T09:36:26.154Z,22.80
2019-05-28T09:39:04.711Z,22.70
2019-05-28T09:41:42.374Z,22.70
2019-05-28T09:44:20.024Z,22.60
2019-05-28T09:46:57.707Z,22.60
2019-05-28T09:49:35.373Z,22.60
2019-05-28T09:52:13.019Z,22.70
2019-05-28T09:54:50.621Z,22.90
2019-05-28T09:57:28.316Z,23.00
2019-05-28T10:00:08.782Z,23.10
2019-05-28T10:02:46.532Z,23.10
2019-05-28T10:05:24.183Z,22.90
2019-05-28T10:08:01.855Z,22.60
2019-05-28T10:10:39.506Z,22.50
2019-05-28T10:13:17.196Z,22.50
2019-05-28T10:15:54.891Z,22.50
2019-05-28T10:18:32.557Z,22.40
2019-05-28T10:21:18.503Z,22.30
2019-05-28T10:23:49.591Z,22.00
2019-05-28T10:26:27.235Z,21.50
2019-05-28T10:29:04.902Z,21.20
2019-05-28T10:31:42.452Z,21.10
2019-05-28T10:34:20.419Z,21.20
2019-05-28T10:36:58.089Z,21.30
2019-05-28T10:39:35.801Z,21.30
2019-05-28T10:42:13.483Z,21.30
2019-05-28T10:44:51.141Z,21.40
2019-05-28T10:47:28.916Z,21.40
2019-05-28T10:50:20.642Z,21.40
2019-05-28T10:52:58.287Z,21.40
2019-05-28T10:55:35.994Z,21.50
2019-05-28T10:58:13.612Z,21.50
2019-05-28T11:00:51.262Z,21.50
2019-05-28T11:03:28.914Z,21.30
2019-05-28T11:06:08.862Z,21.10
2019-05-28T11:08:47.427Z,20.90
2019-05-28T11:11:25.081Z,20.80
2019-05-28T11:14:02.751Z,20.60
2019-05-28T11:16:43.456Z,20.50
2019-05-28T11:19:30.180Z,20.30
2019-05-28T11:22:07.930Z,20.20
2019-05-28T11:24:45.616Z,20.10
2019-05-28T11:27:24.136Z,20.10
2019-05-28T11:30:01.923Z,20.00
2019-05-28T11:32:39.572Z,20.00
2019-05-28T11:35:17.549Z,20.10
2019-05-28T11:37:55.238Z,20.20
2019-05-28T11:40:32.838Z,20.10
2019-05-28T11:43:10.525Z,20.10
2019-05-28T11:45:48.282Z,20.10
2019-05-28T11:48:26.012Z,20.00
2019-05-28T11:51:03.702Z,20.00
2019-05-28T11:53:41.393Z,19.90
2019-05-28T11:56:19.060Z,19.80
2019-05-28T11:58:57.289Z,19.70
2019-05-28T12:01:35.610Z,19.60
2019-05-28T12:04:13.545Z,19.40
2019-05-28T12:06:51.211Z,19.30
2019-05-28T12:09:30.621Z,19.10
2019-05-28T12:12:08.174Z,19.00
2019-05-28T12:14:45.858Z,18.80
2019-05-28T12:17:40.875Z,18.60
2019-05-28T12:20:02.228Z,18.40
2019-05-28T12:22:39.345Z,18.20
2019-05-28T12:25:18.440Z,18.10
2019-05-28T12:27:57.133Z,18.00
2019-05-28T12:30:38.192Z,17.80
2019-05-28T12:33:15.288Z,17.80
2019-05-28T12:35:56.863Z,17.80
2019-05-28T12:38:34.608Z,17.90
2019-05-28T12:41:12.321Z,18.00
2019-05-28T12:43:49.491Z,18.00
2019-05-28T12:46:28.085Z,18.00
2019-05-28T12:49:05.162Z,18.10
2019-05-28T12:51:43.342Z,18.10
2019-05-28T12:54:20.995Z,18.10
2019-05-28T12:56:58.104Z,18.10
2019-05-28T12:59:35.221Z,18.10
2019-05-28T13:02:12.397Z,18.20
2019-05-28T13:04:49.476Z,18.30
2019-05-28T13:07:27.223Z,18.30
2019-05-28T13:10:08.827Z,18.40
2019-05-28T13:12:45.995Z,18.30
2019-05-28T13:15:23.712Z,18.30
2019-05-28T13:18:00.812Z,18.30
2019-05-28T13:20:38.508Z,18.40
2019-05-28T13:23:15.502Z,18.20
2019-05-28T13:25:53.209Z,18.10
2019-05-28T13:28:30.835Z,18.00
2019-05-28T13:31:07.934Z,17.80
2019-05-28T13:33:47.166Z,17.80
2019-05-28T13:36:24.267Z,17.60
2019-05-28T13:39:01.387Z,17.50
2019-05-28T13:41:38.536Z,17.30
2019-05-28T13:44:15.623Z,17.20
2019-05-28T13:46:52.722Z,17.10
2019-05-28T13:49:29.806Z,16.90
2019-05-28T13:52:11.871Z,16.80
2019-05-28T13:54:46.247Z,16.70
2019-05-28T13:57:23.625Z,16.50
2019-05-28T14:00:01.523Z,16.30
2019-05-28T14:02:38.644Z,16.20
2019-05-28T14:05:19.906Z,16.10
2019-05-28T14:07:57.122Z,16.10
2019-05-28T14:10:34.223Z,16.10
2019-05-28T14:13:11.405Z,16.00
2019-05-28T14:15:48.451Z,16.00
2019-05-28T14:18:26.086Z,15.90
2019-05-28T14:21:03.229Z,15.90
2019-05-28T14:23:40.338Z,15.80
2019-05-28T14:26:17.452Z,15.80
2019-05-28T14:28:54.558Z,15.60
2019-05-28T14:31:33.798Z,15.60
2019-05-28T14:34:10.920Z,15.50
2019-05-28T14:36:48.022Z,15.60
2019-05-28T14:39:39.961Z,15.50
2019-05-28T14:42:05.459Z,15.50
2019-05-28T14:44:43.401Z,15.40
2019-05-28T14:47:20.661Z,15.40
2019-05-28T14:49:57.766Z,15.40
2019-05-28T14:52:37.878Z,15.30
2019-05-28T14:55:15.000Z,15.40
2019-05-28T14:57:52.119Z,15.30
2019-05-28T15:00:29.454Z,15.30
2019-05-28T15:03:06.566Z,15.30
2019-05-28T15:05:43.721Z,15.30
2019-05-28T15:08:20.925Z,15.30
2019-05-28T15:10:58.055Z,15.30
2019-05-28T15:13:36.656Z,15.30
2019-05-28T15:16:13.778Z,15.20
2019-05-28T15:18:53.941Z,15.20
2019-05-28T15:21:31.321Z,15.20
2019-05-28T15:24:08.490Z,15.10
2019-05-28T15:26:47.010Z,15.10
2019-05-28T15:29:24.208Z,15.10
2019-05-28T15:32:01.460Z,15.00
2019-05-28T15:34:39.201Z,15.00
2019-05-28T15:37:16.309Z,15.00
2019-05-28T15:39:53.443Z,15.00
2019-05-28T15:42:30.553Z,14.90
2019-05-28T15:45:10.944Z,14.90
2019-05-28T15:47:48.062Z,14.90
2019-05-28T15:50:25.237Z,14.90
2019-05-28T15:53:02.322Z,14.90
2019-05-28T15:55:39.731Z,14.90
2019-05-28T15:58:16.873Z,14.80
2019-05-28T16:00:54.291Z,14.80
2019-05-28T16:03:31.445Z,14.80
2019-05-28T16:06:08.651Z,14.70
2019-05-28T16:08:45.746Z,14.70
2019-05-28T16:11:23.162Z,14.70
2019-05-28T16:14:06.680Z,14.60
2019-05-28T16:16:43.889Z,14.60
2019-05-28T16:19:21.199Z,14.50
2019-05-28T16:21:58.368Z,14.50
2019-05-28T16:24:38.235Z,14.50
2019-05-28T16:27:15.373Z,14.50
2019-05-28T16:29:52.471Z,14.40
2019-05-28T16:32:29.684Z,14.40
2019-05-28T16:35:07.126Z,14.40
2019-05-28T16:37:44.369Z,14.40
2019-05-28T16:40:22.000Z,14.30
2019-05-28T16:42:59.219Z,14.30
2019-05-28T16:45:36.795Z,14.30
2019-05-28T16:48:18.226Z,14.20
2019-05-28T16:50:55.719Z,14.20
2019-05-28T16:53:36.523Z,14.20
2019-05-28T16:56:13.471Z,14.10
2019-05-28T16:58:50.695Z,14.10
2019-05-28T17:01:27.914Z,14.10
2019-05-28T17:04:05.026Z,14.00
2019-05-28T17:06:42.170Z,14.00
2019-05-28T17:09:19.337Z,13.90
2019-05-28T17:11:57.866Z,13.90
2019-05-28T17:14:38.251Z,13.90
2019-05-28T17:17:18.927Z,13.80
2019-05-28T17:19:56.641Z,13.70
2019-05-28T17:22:33.778Z,13.70
2019-05-28T17:25:12.264Z,13.60
2019-05-28T17:27:49.507Z,13.50
2019-05-28T17:30:26.648Z,13.50
2019-05-28T17:33:03.771Z,13.40
2019-05-28T17:35:40.871Z,13.40
2019-05-28T17:38:18.042Z,13.40
2019-05-28T17:40:55.160Z,13.40
2019-05-28T17:43:32.294Z,13.40
2019-05-28T17:46:09.948Z,13.40
2019-05-28T17:48:47.367Z,13.40
2019-05-28T17:51:24.495Z,13.40
2019-05-28T17:54:01.651Z,13.30
2019-05-28T17:56:38.781Z,13.30
2019-05-28T17:59:15.921Z,13.30
2019-05-28T18:01:53.074Z,13.30
2019-05-28T18:04:30.225Z,13.30
2019-05-28T18:07:07.399Z,13.30
2019-05-28T18:09:45.808Z,13.30
2019-05-28T18:12:22.978Z,13.30
2019-05-28T18:15:00.126Z,13.30
2019-05-28T18:17:37.258Z,13.30
2019-05-28T18:20:15.152Z,13.30
2019-05-28T18:22:52.336Z,13.30
2019-05-28T18:25:29.526Z,13.30
2019-05-28T18:28:07.167Z,13.30
2019-05-28T18:30:44.262Z,13.30
2019-05-28T18:33:21.522Z,13.30
2019-05-28T18:35:58.659Z,13.30
2019-05-28T18:38:43.283Z,13.30
2019-05-28T18:41:22.227Z,13.30
2019-05-28T18:44:01.993Z,13.40
2019-05-28T18:46:42.127Z,13.30
2019-05-28T18:49:29.424Z,13.30
2019-05-28T18:52:07.110Z,13.30
2019-05-28T18:54:45.314Z,13.40
2019-05-28T18:57:22.445Z,13.40
2019-05-28T19:00:01.241Z,13.40
2019-05-28T19:02:42.886Z,13.40
2019-05-28T19:05:20.940Z,13.40
2019-05-28T19:07:58.118Z,13.40
2019-05-28T19:10:35.313Z,13.40
2019-05-28T19:13:12.652Z,13.40
2019-05-28T19:15:59.522Z,13.40
2019-05-28T19:18:47.993Z,13.40
2019-05-28T19:21:26.661Z,13.40
2019-05-28T19:24:05.387Z,13.40
2019-05-28T19:26:46.032Z,13.40
2019-05-28T19:29:23.897Z,13.40
2019-05-28T19:32:01.173Z,13.40
2019-05-28T19:34:38.307Z,13.40
2019-05-28T19:37:15.450Z,13.30
2019-05-28T19:39:52.769Z,13.30
2019-05-28T19:42:30.278Z,13.30
2019-05-28T19:45:07.601Z,13.40
2019-05-28T19:47:44.725Z,13.40
2019-05-28T19:50:21.852Z,13.30
2019-05-28T19:52:59.024Z,13.40
2019-05-28T19:55:36.172Z,13.40
2019-05-28T19:58:13.325Z,13.40
2019-05-28T20:00:50.530Z,13.40
2019-05-28T20:03:27.729Z,13.40
2019-05-28T20:06:04.872Z,13.40
2019-05-28T20:08:42.003Z,13.40
2019-05-28T20:11:19.314Z,13.40
2019-05-28T20:14:05.187Z,13.40
2019-05-28T20:16:39.185Z,13.40
2019-05-28T20:19:16.802Z,13.40
2019-05-28T20:21:55.438Z,13.30
2019-05-28T20:24:32.681Z,13.30
2019-05-28T20:27:09.820Z,13.30
2019-05-28T20:29:46.970Z,13.30
2019-05-28T20:32:24.024Z,13.20
2019-05-28T20:35:01.453Z,13.20
2019-05-28T20:37:38.750Z,13.20
2019-05-28T20:40:16.836Z,13.20
2019-05-28T20:42:54.057Z,13.20
2019-05-28T20:45:31.503Z,13.20
2019-05-28T20:48:08.706Z,13.20
2019-05-28T20:50:45.835Z,13.20
2019-05-28T20:53:36.375Z,13.20
2019-05-28T20:56:12.069Z,13.20
2019-05-28T20:58:51.825Z,13.20
2019-05-28T21:01:32.016Z,13.20
2019-05-28T21:04:09.300Z,13.20
2019-05-28T21:06:47.922Z,13.20
2019-05-28T21:09:25.248Z,13.10
2019-05-28T21:12:02.458Z,13.10
2019-05-28T21:14:39.685Z,13.10
2019-05-28T21:17:16.813Z,13.00
2019-05-28T21:19:55.281Z,13.00
2019-05-28T21:22:39.499Z,13.00
2019-05-28T21:25:16.648Z,13.00
2019-05-28T21:27:54.384Z,13.00
2019-05-28T21:30:33.339Z,13.00
2019-05-28T21:33:10.547Z,13.00
2019-05-28T21:35:48.827Z,12.90
2019-05-28T21:38:25.947Z,12.90
2019-05-28T21:41:03.202Z,12.90
2019-05-28T21:43:40.488Z,12.90
2019-05-28T21:46:17.794Z,12.90
2019-05-28T21:48:56.541Z,12.80
2019-05-28T21:51:33.996Z,12.90
2019-05-28T21:54:11.129Z,12.80
2019-05-28T21:56:48.249Z,12.80
2019-05-28T21:59:25.835Z,12.70
2019-05-28T22:02:04.656Z,12.70
2019-05-28T22:04:41.702Z,12.70
2019-05-28T22:07:19.576Z,12.70
2019-05-28T22:09:57.682Z,12.70
2019-05-28T22:12:34.917Z,12.70
2019-05-28T22:15:12.132Z,12.60
2019-05-28T22:17:49.279Z,12.60
2019-05-28T22:20:26.404Z,12.60
2019-05-28T22:23:05.880Z,12.60
2019-05-28T22:25:43.004Z,12.50
2019-05-28T22:28:20.128Z,12.50
2019-05-28T22:30:57.721Z,12.50
2019-05-28T22:33:34.917Z,12.50
2019-05-28T22:36:12.065Z,12.50
2019-05-28T22:39:08.922Z,12.50
2019-05-28T22:41:46.365Z,12.50
2019-05-28T22:44:23.515Z,12.50
2019-05-28T22:47:01.063Z,12.50
2019-05-28T22:49:38.181Z,12.50
2019-05-28T22:52:15.303Z,12.50
2019-05-28T22:54:52.459Z,12.50
2019-05-28T22:57:29.564Z,12.50
2019-05-28T23:00:18.918Z,12.50
2019-05-28T23:02:56.281Z,12.50
2019-05-28T23:05:33.903Z,12.50
2019-05-28T23:08:11.042Z,12.50
2019-05-28T23:10:48.146Z,12.50
2019-05-28T23:13:25.772Z,12.40
2019-05-28T23:16:04.250Z,12.40
2019-05-28T23:18:41.451Z,12.40
2019-05-28T23:21:18.573Z,12.40
2019-05-28T23:23:55.707Z,12.40
2019-05-28T23:26:32.817Z,12.40
2019-05-28T23:29:09.925Z,12.30
2019-05-28T23:31:47.295Z,12.30
2019-05-28T23:34:24.433Z,12.30
2019-05-28T23:37:04.313Z,12.20
2019-05-28T23:39:40.675Z,12.20
2019-05-28T23:42:18.020Z,12.20
2019-05-28T23:44:56.122Z,12.20
2019-05-28T23:47:33.268Z,12.20
2019-05-28T23:50:14.458Z,12.10
2019-05-28T23:52:49.236Z,12.20
2019-05-28T23:55:26.368Z,12.20
2019-05-28T23:58:03.483Z,12.10
